Time;durP1;ratioP1;P1;durP2;ratioP2;P2;SDS_P1;SDS_P2;PMS_P1;PMS_P2;Temp;Humidity;BMP_temperature;BMP_pressure;BME280_temperature;BME280_humidity;BME280_pressure;Samples;Min_cycle;Max_cycle;Signal;HPM_P1;HPM_P2
2022/04/28 00:01:01;;;;;;;22.88;17.85;;;;;;;12.74;57.82;101880.31;4977941;28;20085;-64
2022/04/28 00:03:28;;;;;;;28.25;17.77;;;;;;;12.81;57.68;101887.13;4975325;28;20050;-62
2022/04/28 00:05:57;;;;;;;27.80;18.73;;;;;;;12.59;58.23;101886.06;4963390;28;20050;-67
2022/04/28 00:08:25;;;;;;;28.33;18.33;;;;;;;12.67;57.74;101872.41;4961757;28;20094;-67
2022/04/28 00:10:52;;;;;;;27.98;17.15;;;;;;;12.69;57.82;101880.38;4977559;28;20062;-67
2022/04/28 00:13:20;;;;;;;27.55;18.48;;;;;;;12.54;58.32;101883.34;4978474;28;20055;-61
2022/04/28 00:15:47;;;;;;;25.15;18.20;;;;;;;12.65;57.90;101885.69;4962970;28;20062;-67
2022/04/28 00:18:15;;;;;;;23.27;16.73;;;;;;;12.56;58.15;101894.94;4976973;28;20062;-60
2022/04/28 00:20:42;;;;;;;28.33;17.67;;;;;;;12.59;58.02;101895.16;4977873;28;20050;-67
2022/04/28 00:23:09;;;;;;;25.45;18.73;;;;;;;12.30;58.63;101889.78;4977621;28;20054;-66
2022/04/28 00:25:37;;;;;;;26.35;18.52;;;;;;;12.34;58.75;101879.75;4968127;28;20057;-66
2022/04/28 00:28:04;;;;;;;31.45;18.10;;;;;;;12.30;58.73;101884.25;4978773;28;20055;-66
2022/04/28 00:30:31;;;;;;;25.60;17.42;;;;;;;12.46;58.51;101882.91;4977114;28;21647;-67
2022/04/28 00:32:59;;;;;;;29.10;19.38;;;;;;;12.40;58.28;101875.81;4974680;28;20058;-66
2022/04/28 00:35:26;;;;;;;27.77;19.17;;;;;;;12.31;58.56;101874.00;4977520;28;20094;-67
2022/04/28 00:37:53;;;;;;;26.05;18.95;;;;;;;12.43;58.10;101866.09;4974343;28;20066;-61
2022/04/28 00:40:21;;;;;;;28.77;18.65;;;;;;;12.32;58.45;101859.91;4947443;28;20069;-66
2022/04/28 00:42:48;;;;;;;25.90;18.48;;;;;;;12.36;58.38;101872.00;4960917;28;20471;-61
2022/04/28 00:45:15;;;;;;;27.20;19.08;;;;;;;11.98;59.47;101875.81;4977511;28;20042;-61
2022/04/28 00:50:38;;;;;;;25.90;19.02;;;;;;;12.10;59.18;101880.94;4979475;28;20406;-67
2022/04/28 00:53:12;;;;;;;35.85;18.95;;;;;;;12.07;59.35;101884.25;4970588;28;20051;-66
2022/04/28 00:55:41;;;;;;;27.30;19.48;;;;;;;11.90;59.42;101870.94;4958736;28;20064;-67
2022/04/28 00:58:10;;;;;;;30.48;19.45;;;;;;;12.01;59.56;101861.41;4960236;28;20054;-67
2022/04/28 01:00:39;;;;;;;28.27;20.25;;;;;;;11.96;59.45;101868.97;4978624;28;20057;-67
2022/04/28 01:03:10;;;;;;;32.55;20.27;;;;;;;11.65;60.37;101867.63;4949186;28;20066;-67
2022/04/28 01:05:38;;;;;;;31.08;19.85;;;;;;;11.83;60.34;101864.97;4963400;28;20066;-61
2022/04/28 01:08:06;;;;;;;31.80;19.23;;;;;;;12.07;59.39;101871.28;4984805;28;20498;-60
2022/04/28 01:10:37;;;;;;;32.33;19.85;;;;;;;11.97;59.68;101862.31;4944487;28;20758;-62
2022/04/28 01:13:05;;;;;;;28.13;20.10;;;;;;;11.98;59.56;101859.25;4977426;28;20143;-61
2022/04/28 01:16:01;;;;;;;31.25;19.38;;;;;;;11.84;60.08;101865.75;4963813;28;20431;-67
2022/04/28 01:18:28;;;;;;;30.00;20.92;;;;;;;11.59;60.99;101860.50;4948635;28;20063;-67
2022/04/28 01:21:02;;;;;;;33.05;20.10;;;;;;;11.83;60.40;101864.13;4977331;28;20042;-66
2022/04/28 01:23:31;;;;;;;36.35;21.05;;;;;;;11.77;60.33;101865.31;4977438;28;20061;-66
2022/04/28 01:25:59;;;;;;;31.43;20.17;;;;;;;11.69;60.84;101857.66;4950961;28;20047;-66
2022/04/28 01:28:27;;;;;;;32.03;21.17;;;;;;;11.57;60.99;101869.09;4959205;28;20054;-67
2022/04/28 01:30:55;;;;;;;27.67;20.15;;;;;;;11.45;61.64;101857.63;4974190;28;20053;-67
2022/04/28 01:33:22;;;;;;;30.67;20.35;;;;;;;11.45;61.64;101859.56;4959722;28;20058;-67
2022/04/28 01:35:49;;;;;;;28.38;20.15;;;;;;;11.62;61.02;101866.28;4955190;28;20050;-60
2022/04/28 01:38:17;;;;;;;30.20;20.80;;;;;;;11.65;60.89;101860.19;4960112;28;20070;-62
2022/04/28 01:40:45;;;;;;;32.55;21.80;;;;;;;11.44;61.66;101867.00;4959435;28;20533;-60
2022/04/28 01:43:12;;;;;;;31.13;19.45;;;;;;;11.41;61.82;101869.53;4958252;28;20062;-61
2022/04/28 01:45:40;;;;;;;29.17;19.63;;;;;;;11.43;61.73;101867.28;4962394;28;20077;-60
2022/04/28 01:48:26;;;;;;;30.02;21.50;;;;;;;11.22;62.07;101864.75;4963695;28;20157;-61
2022/04/28 01:57:15;;;;;;;32.45;20.55;;;;;;;11.44;61.77;101858.72;4919769;29;20142;-62
2022/04/28 01:59:55;;;;;;;35.87;20.97;;;;;;;11.44;61.57;101863.44;4927694;29;20054;-67
2022/04/28 02:02:40;;;;;;;29.88;20.92;;;;;;;11.45;61.73;101857.63;4945325;28;20291;-66
2022/04/28 02:05:09;;;;;;;32.97;20.98;;;;;;;11.45;61.72;101878.88;4948342;29;20058;-60
2022/04/28 02:07:37;;;;;;;30.63;20.65;;;;;;;11.19;62.57;101872.78;4943628;29;20058;-60
2022/04/28 02:10:05;;;;;;;34.85;20.40;;;;;;;11.26;62.26;101876.03;4940385;29;20059;-61
2022/04/28 02:12:33;;;;;;;31.38;20.95;;;;;;;11.13;62.89;101869.22;4946582;29;20060;-61
2022/04/28 02:15:19;;;;;;;34.25;20.00;;;;;;;11.25;62.63;101875.19;4952147;28;20055;-60
2022/04/28 02:18:09;;;;;;;28.38;20.38;;;;;;;11.16;62.68;101882.44;4931204;29;20618;-67
2022/04/28 02:20:37;;;;;;;31.50;20.00;;;;;;;11.15;62.87;101878.03;4942701;29;20055;-67
2022/04/28 02:23:05;;;;;;;32.25;20.13;;;;;;;11.34;62.29;101873.47;4943312;28;20053;-61
2022/04/28 02:25:35;;;;;;;34.45;20.60;;;;;;;11.37;62.14;101880.31;4924543;29;20055;-61
2022/04/28 02:28:03;;;;;;;30.42;20.25;;;;;;;11.26;62.38;101881.53;4958649;28;20055;-60
2022/04/28 02:30:30;;;;;;;34.33;20.85;;;;;;;10.93;63.28;101880.41;4939843;29;20043;-61
2022/04/28 02:33:10;;;;;;;33.92;20.45;;;;;;;10.84;63.53;101889.59;4957577;28;20114;-60
2022/04/28 02:35:47;;;;;;;30.27;20.23;;;;;;;10.67;64.28;101891.94;4929538;29;20054;-60
2022/04/28 02:38:14;;;;;;;33.25;20.77;;;;;;;10.89;63.93;101886.81;4936344;29;20056;-65
2022/04/28 02:40:41;;;;;;;34.45;20.42;;;;;;;10.74;63.99;101893.22;4930353;29;20054;-66
2022/04/28 02:43:09;;;;;;;34.40;21.33;;;;;;;10.65;64.73;101894.13;4968159;28;20051;-66
2022/04/28 02:45:46;;;;;;;29.67;19.30;;;;;;;10.96;63.92;101890.06;4937113;28;20051;-68
2022/04/28 02:48:15;;;;;;;30.38;19.88;;;;;;;10.93;63.39;101891.44;4944335;29;20429;-68
2022/04/28 02:50:44;;;;;;;33.95;20.25;;;;;;;11.01;63.43;101892.78;4957185;28;20387;-61
2022/04/28 02:53:11;;;;;;;29.55;18.45;;;;;;;10.88;63.72;101890.69;4945050;29;20055;-66
2022/04/28 02:55:45;;;;;;;35.15;20.63;;;;;;;10.71;64.24;101896.56;4938847;28;20055;-66
2022/04/28 02:58:13;;;;;;;29.88;20.58;;;;;;;10.73;64.18;101902.63;4938335;29;20043;-67
2022/04/28 03:00:41;;;;;;;32.83;20.27;;;;;;;10.64;64.34;101898.81;4956429;28;20048;-66
2022/04/28 03:03:09;;;;;;;34.40;20.17;;;;;;;10.83;64.28;101893.44;4944419;28;20059;-65
2022/04/28 03:10:46;;;;;;;31.92;19.35;;;;;;;10.88;63.91;101898.94;4957365;28;20502;-65
2022/04/28 03:11:20;;;;;;;33.60;21.52;;;;;;;10.13;66.32;101903.75;4961169;28;20055;-66
2022/04/28 03:13:47;;;;;;;34.88;21.35;;;;;;;10.01;66.98;101905.16;4953255;28;20058;-66
2022/04/28 03:16:15;;;;;;;35.80;20.88;;;;;;;10.29;66.27;101917.47;4957346;28;20619;-66
2022/04/28 03:18:53;;;;;;;31.88;20.30;;;;;;;10.25;66.37;101911.72;4938602;29;20055;-66
2022/04/28 03:21:21;;;;;;;30.30;20.02;;;;;;;10.68;65.28;101901.81;4938628;29;20051;-66
2022/04/28 03:23:48;;;;;;;33.03;20.95;;;;;;;10.88;64.34;101907.22;4938980;29;20051;-66
2022/04/28 03:26:15;;;;;;;28.77;20.55;;;;;;;10.54;65.15;101904.41;4922914;29;20058;-66
2022/04/28 03:28:43;;;;;;;34.45;19.77;;;;;;;10.51;65.35;101913.25;4927530;29;20051;-66
2022/04/28 03:31:10;;;;;;;35.13;21.38;;;;;;;10.38;65.66;101907.50;4954596;28;20348;-66
2022/04/28 03:34:00;;;;;;;36.38;21.60;;;;;;;10.42;65.59;101906.66;4954784;28;20062;-66
2022/04/28 03:39:14;;;;;;;31.13;20.92;;;;;;;10.24;66.32;101907.28;4944944;28;20438;-66
2022/04/28 03:41:43;;;;;;;32.22;20.35;;;;;;;10.23;66.44;101915.84;4974201;28;20555;-67
2022/04/28 03:44:11;;;;;;;35.17;21.95;;;;;;;10.10;66.95;101920.00;4943386;28;20144;-65
2022/04/28 03:46:39;;;;;;;30.50;19.80;;;;;;;10.34;66.42;101911.94;4949566;28;20074;-66
2022/04/28 03:49:06;;;;;;;33.20;20.70;;;;;;;10.23;66.22;101906.47;4962794;28;20410;-65
2022/04/28 03:51:34;;;;;;;35.92;21.83;;;;;;;9.98;67.08;101912.06;4960752;28;20047;-66
2022/04/28 03:54:03;;;;;;;34.50;21.85;;;;;;;9.94;67.84;101921.13;4981104;28;20063;-65
2022/04/28 03:56:33;;;;;;;32.13;21.58;;;;;;;10.04;67.05;101913.66;4964149;28;20058;-66
2022/04/28 03:59:06;;;;;;;37.88;20.60;;;;;;;10.21;67.00;101918.88;4962255;28;20061;-61
2022/04/28 04:01:52;;;;;;;32.58;20.10;;;;;;;10.34;65.92;101914.69;4968177;28;20055;-62
2022/04/28 04:04:20;;;;;;;28.70;20.08;;;;;;;10.04;67.05;101916.41;4980861;28;20063;-61
2022/04/28 04:06:57;;;;;;;34.35;21.42;;;;;;;10.19;67.17;101910.91;4960705;28;20047;-59
2022/04/28 04:09:47;;;;;;;35.05;20.33;;;;;;;10.36;66.04;101912.47;4947475;28;20510;-60
2022/04/28 04:12:39;;;;;;;31.13;20.92;;;;;;;10.40;66.11;101919.06;4970413;28;20074;-60
2022/04/28 04:15:15;;;;;;;32.60;20.02;;;;;;;10.57;65.58;101914.84;4981571;28;20046;-59
2022/04/28 04:18:09;;;;;;;33.63;20.90;;;;;;;10.57;65.31;101922.28;4973611;28;20046;-61
2022/04/28 04:20:50;;;;;;;41.40;21.85;;;;;;;10.45;65.91;101925.38;4962593;28;20053;-60
2022/04/28 04:23:18;;;;;;;34.42;22.52;;;;;;;10.12;66.83;101926.91;4960934;28;20058;-60
2022/04/28 04:25:47;;;;;;;32.08;22.17;;;;;;;10.20;66.52;101933.75;4962029;28;20418;-61
2022/04/28 04:28:18;;;;;;;35.92;21.80;;;;;;;10.13;67.29;101930.47;4967022;28;20050;-62
2022/04/28 04:34:09;;;;;;;35.70;21.25;;;;;;;10.40;66.56;101930.06;4960724;28;20050;-66
2022/04/28 04:36:37;;;;;;;34.90;21.75;;;;;;;10.55;65.70;101941.84;4976781;28;20074;-66
2022/04/28 04:39:04;;;;;;;40.40;22.52;;;;;;;10.23;66.89;101938.72;4957230;28;20043;-66
2022/04/28 04:41:38;;;;;;;36.90;22.73;;;;;;;10.30;66.59;101939.22;4972743;28;20643;-65
2022/04/28 04:44:12;;;;;;;35.08;22.30;;;;;;;10.34;67.19;101939.50;4970653;28;20054;-66
2022/04/28 04:46:42;;;;;;;32.67;22.17;;;;;;;10.10;67.07;101942.03;4962639;28;20065;-65
2022/04/28 04:49:24;;;;;;;37.42;22.02;;;;;;;10.30;66.80;101941.16;4970326;28;20046;-65
2022/04/28 04:52:14;;;;;;;36.75;23.23;;;;;;;9.92;67.83;101948.94;4971706;28;20042;-65
2022/04/28 04:55:02;;;;;;;36.88;23.92;;;;;;;9.94;68.10;101948.66;4975625;28;20050;-67
2022/04/28 04:57:40;;;;;;;36.08;22.63;;;;;;;10.28;67.45;101946.94;4960536;28;20051;-67
2022/04/28 05:00:08;;;;;;;36.85;24.35;;;;;;;10.07;67.51;101948.91;4961225;28;20054;-66
2022/04/28 05:02:56;;;;;;;37.28;23.88;;;;;;;9.82;68.56;101957.22;4986232;28;20123;-66
2022/04/28 05:05:44;;;;;;;36.35;24.23;;;;;;;10.08;68.29;101953.34;4949496;28;20058;-66
2022/04/28 05:08:17;;;;;;;35.20;23.77;;;;;;;10.39;67.25;101953.22;4962014;28;20049;-66
2022/04/28 05:10:56;;;;;;;36.38;23.50;;;;;;;10.12;67.74;101968.19;4973715;28;20627;-66
2022/04/28 05:13:24;;;;;;;34.50;22.80;;;;;;;10.10;67.61;101972.31;4966322;28;20414;-67
2022/04/28 05:15:56;;;;;;;38.95;24.08;;;;;;;9.98;68.48;101971.78;4960391;28;20062;-66
2022/04/28 05:18:37;;;;;;;38.05;24.17;;;;;;;10.03;68.20;101974.50;4975902;28;20065;-66
2022/04/28 05:21:27;;;;;;;40.72;23.48;;;;;;;10.28;67.61;101970.91;4976221;28;20055;-66
2022/04/28 05:24:12;;;;;;;37.97;24.10;;;;;;;10.49;66.81;101976.06;4956825;28;20058;-66
2022/04/28 05:26:58;;;;;;;40.42;23.15;;;;;;;10.29;67.27;101984.38;4973067;28;20062;-66
2022/04/28 05:29:46;;;;;;;37.13;22.85;;;;;;;10.27;67.46;101986.56;4934617;28;20063;-66
2022/04/28 05:32:24;;;;;;;40.97;23.90;;;;;;;10.59;66.20;101988.94;4963110;28;20050;-67
2022/04/28 05:34:57;;;;;;;41.13;25.10;;;;;;;10.15;67.15;101995.16;4977209;28;20057;-67
2022/04/28 05:37:24;;;;;;;42.10;25.88;;;;;;;10.24;67.85;101995.41;4967764;28;20058;-66
2022/04/28 05:39:52;;;;;;;36.08;25.00;;;;;;;10.38;67.14;102007.47;4967090;28;20061;-66
2022/04/28 05:42:19;;;;;;;38.42;24.60;;;;;;;10.51;66.65;101997.81;4959814;28;20051;-65
2022/04/28 05:47:33;;;;;;;42.75;25.95;;;;;;;10.27;67.33;101997.59;4969376;28;20047;-67
2022/04/28 05:50:01;;;;;;;47.47;26.02;;;;;;;10.32;67.38;102000.31;4959526;28;20062;-67
2022/04/28 05:52:39;;;;;;;39.17;24.77;;;;;;;10.29;67.36;102003.66;4943487;28;20054;-68
2022/04/28 05:55:11;;;;;;;44.13;26.23;;;;;;;10.41;67.30;102009.66;4959703;28;20402;-66
2022/04/28 05:57:40;;;;;;;39.22;25.45;;;;;;;10.80;66.26;102007.03;4955805;28;20062;-67
2022/04/28 06:00:09;;;;;;;39.95;25.73;;;;;;;10.55;66.09;102015.44;4974450;28;20051;-66
2022/04/28 06:02:42;;;;;;;41.75;26.67;;;;;;;10.34;67.28;102017.41;4976219;28;20070;-67
2022/04/28 06:05:20;;;;;;;43.83;26.02;;;;;;;10.62;66.56;102005.72;4975161;28;20050;-66
2022/04/28 06:07:49;;;;;;;40.83;25.50;;;;;;;10.76;65.85;102023.31;4968175;28;20061;-66
2022/04/28 06:10:17;;;;;;;42.75;26.10;;;;;;;10.84;65.68;102019.13;4958550;28;20058;-65
2022/04/28 06:12:46;;;;;;;46.80;26.40;;;;;;;10.79;65.49;102024.69;4968719;28;20055;-61
2022/04/28 06:15:39;;;;;;;39.55;26.00;;;;;;;11.01;65.12;102020.44;4964617;28;20057;-62
2022/04/28 06:18:39;;;;;;;36.72;25.35;;;;;;;10.89;64.84;102022.69;4911307;28;20066;-67
2022/04/28 06:21:26;;;;;;;36.60;25.40;;;;;;;10.68;65.97;102026.66;4976225;28;20058;-66
2022/04/28 06:23:53;;;;;;;38.75;26.52;;;;;;;10.75;65.87;102027.19;4974072;28;20498;-62
2022/04/28 06:26:21;;;;;;;40.78;26.13;;;;;;;10.54;66.29;102028.38;4959164;28;20055;-62
2022/04/28 06:28:48;;;;;;;36.22;25.75;;;;;;;10.73;66.28;102031.31;4967821;28;20054;-62
2022/04/28 06:31:16;;;;;;;43.58;26.13;;;;;;;10.95;65.46;102020.72;4959033;28;20051;-61
2022/04/28 06:33:49;;;;;;;51.90;27.35;;;;;;;11.13;64.67;102022.81;4974571;28;20046;-61
2022/04/28 06:36:27;;;;;;;43.42;25.85;;;;;;;11.05;64.98;102034.47;4955962;28;20058;-67
2022/04/28 06:38:56;;;;;;;43.45;26.63;;;;;;;10.80;65.61;102040.94;4957751;28;20047;-67
2022/04/28 06:41:24;;;;;;;39.65;27.30;;;;;;;10.79;65.73;102039.25;4974646;28;20050;-66
2022/04/28 06:43:58;;;;;;;39.50;25.45;;;;;;;10.90;65.52;102038.13;4959583;28;20055;-66
2022/04/28 06:46:44;;;;;;;44.75;25.88;;;;;;;10.96;65.25;102038.91;4960327;28;20061;-67
2022/04/28 06:49:30;;;;;;;41.78;25.88;;;;;;;11.40;64.12;102039.75;4975861;28;20046;-67
2022/04/28 06:51:57;;;;;;;38.38;25.80;;;;;;;11.70;63.38;102044.25;4972020;28;20047;-65
2022/04/28 06:54:43;;;;;;;42.85;25.33;;;;;;;11.71;62.73;102045.88;4968655;28;20402;-66
2022/04/28 06:57:14;;;;;;;47.42;26.15;;;;;;;11.72;62.64;102047.53;4973797;28;20054;-67
2022/04/28 06:59:42;;;;;;;44.47;27.20;;;;;;;11.68;62.62;102055.56;4950929;28;20051;-66
2022/04/28 07:02:12;;;;;;;41.72;25.10;;;;;;;11.58;63.03;102046.50;4964058;28;20050;-65
2022/04/28 07:04:44;;;;;;;42.35;26.15;;;;;;;11.68;62.64;102052.00;4945680;28;20050;-65
2022/04/28 07:07:15;;;;;;;36.90;23.85;;;;;;;12.03;62.50;102046.16;4956785;28;20050;-65
2022/04/28 07:09:45;;;;;;;36.05;24.80;;;;;;;12.19;62.71;102055.91;4936875;29;20054;-66
2022/04/28 07:12:33;;;;;;;37.20;24.30;;;;;;;12.19;62.06;102051.22;4948239;28;20055;-66
2022/04/28 07:15:21;;;;;;;31.35;22.70;;;;;;;12.57;62.49;102049.41;4966736;28;20074;-64
2022/04/28 07:18:07;;;;;;;41.40;25.67;;;;;;;12.55;60.53;102054.44;4963324;28;20093;-65
2022/04/28 07:20:35;;;;;;;43.53;26.27;;;;;;;12.82;59.18;102057.41;4961760;28;20046;-66
2022/04/28 07:23:03;;;;;;;45.70;26.38;;;;;;;12.23;60.67;102059.75;4957923;28;20847;-65
2022/04/28 07:25:30;;;;;;;40.70;24.58;;;;;;;12.39;60.65;102053.78;4958152;28;20066;-66
2022/04/28 07:27:58;;;;;;;44.67;26.95;;;;;;;12.40;60.14;102051.84;4975051;28;20061;-66
2022/04/28 07:30:45;;;;;;;40.38;24.30;;;;;;;12.75;59.88;102058.88;4975191;28;20046;-66
2022/04/28 07:33:33;;;;;;;40.25;26.10;;;;;;;12.66;59.62;102060.69;4972532;28;20061;-65
2022/04/28 07:36:19;;;;;;;38.35;23.20;;;;;;;13.03;59.14;102069.06;4972121;28;20058;-65
2022/04/28 07:39:04;;;;;;;35.75;24.52;;;;;;;12.86;59.11;102064.00;4965532;28;20054;-65
2022/04/28 07:41:42;;;;;;;41.80;25.98;;;;;;;13.20;58.07;102050.84;4958487;28;20055;-65
2022/04/28 07:44:09;;;;;;;41.38;25.58;;;;;;;13.03;57.80;102061.59;4940052;28;20055;-66
2022/04/28 07:46:38;;;;;;;38.08;25.50;;;;;;;12.94;58.88;102066.09;4969033;28;20070;-67
2022/04/28 07:49:05;;;;;;;36.72;24.40;;;;;;;13.23;58.00;102055.78;4949388;28;20051;-60
2022/04/28 07:51:35;;;;;;;36.95;24.90;;;;;;;13.17;57.99;102059.75;4948287;28;20051;-62
2022/04/28 07:54:04;;;;;;;38.83;25.13;;;;;;;13.35;57.38;102050.59;4962875;28;20058;-60
2022/04/28 07:56:31;;;;;;;38.88;24.40;;;;;;;13.77;56.85;102068.25;4973814;28;20050;-67
2022/04/28 07:58:59;;;;;;;34.65;23.90;;;;;;;13.74;56.30;102064.13;4958314;28;20043;-61
2022/04/28 08:01:54;;;;;;;35.33;23.50;;;;;;;13.83;56.10;102065.09;4970599;28;20051;-66
2022/04/28 08:04:22;;;;;;;30.92;22.77;;;;;;;14.18;54.99;102069.19;4962784;28;20070;-67
2022/04/28 08:06:59;;;;;;;36.72;21.50;;;;;;;13.80;55.55;102060.16;4955787;28;20071;-68
2022/04/28 08:09:27;;;;;;;36.13;23.20;;;;;;;13.96;55.31;102061.56;4959994;28;20066;-68
2022/04/28 08:11:55;;;;;;;36.38;23.05;;;;;;;13.89;55.39;102058.34;4974598;28;20517;-61
2022/04/28 08:14:25;;;;;;;32.17;22.55;;;;;;;14.00;55.33;102065.34;4957911;28;20059;-67
2022/04/28 08:16:54;;;;;;;35.08;21.60;;;;;;;14.13;55.00;102063.72;4977167;28;20050;-67
2022/04/28 08:19:22;;;;;;;37.80;22.30;;;;;;;14.17;54.31;102070.31;4971970;28;20054;-67
2022/04/28 08:22:02;;;;;;;29.52;21.40;;;;;;;14.26;54.22;102077.66;4954963;28;20130;-61
2022/04/28 08:24:31;;;;;;;34.17;21.38;;;;;;;14.56;53.86;102068.75;4960258;28;20058;-66
2022/04/28 08:26:59;;;;;;;31.80;20.25;;;;;;;14.64;53.29;102070.00;4958090;28;20254;-67
2022/04/28 08:29:26;;;;;;;39.72;20.08;;;;;;;14.78;53.21;102068.06;4952833;28;20051;-66
2022/04/28 08:31:59;;;;;;;32.15;20.58;;;;;;;14.81;52.60;102064.66;4968253;28;20055;-66
2022/04/28 08:34:27;;;;;;;32.40;21.08;;;;;;;14.91;51.95;102066.38;4954294;28;20055;-62
2022/04/28 08:36:55;;;;;;;27.75;19.30;;;;;;;14.83;52.70;102075.44;4974105;28;20476;-62
2022/04/28 08:39:26;;;;;;;29.42;20.55;;;;;;;15.11;51.90;102064.00;4976492;28;20051;-62
2022/04/28 08:41:55;;;;;;;28.15;18.20;;;;;;;15.36;51.30;102068.97;4968061;28;20410;-62
2022/04/28 08:44:25;;;;;;;32.95;18.02;;;;;;;15.57;50.99;102058.22;4965296;28;20051;-61
2022/04/28 08:47:11;;;;;;;25.20;18.77;;;;;;;15.39;50.52;102060.03;4968677;28;20074;-62
2022/04/28 08:49:42;;;;;;;31.38;19.20;;;;;;;15.60;50.21;102060.41;4953398;28;20513;-61
2022/04/28 08:52:25;;;;;;;25.95;17.98;;;;;;;15.51;49.88;102057.56;4954164;28;20059;-61
2022/04/28 08:55:00;;;;;;;28.90;17.85;;;;;;;15.56;49.95;102046.31;4975005;28;20057;-62
2022/04/28 08:57:27;;;;;;;31.30;17.42;;;;;;;15.65;49.81;102044.44;4968100;28;20411;-61
2022/04/28 08:59:55;;;;;;;32.88;18.40;;;;;;;15.65;49.88;102050.00;4954576;28;20051;-63
2022/04/28 09:02:27;;;;;;;30.80;19.13;;;;;;;15.73;49.36;102052.00;4973063;28;20058;-62
2022/04/28 09:05:17;;;;;;;29.25;18.40;;;;;;;15.93;49.01;102047.06;4976498;28;20061;-63
2022/04/28 09:08:03;;;;;;;20.70;15.80;;;;;;;16.03;48.24;102049.59;4965279;28;20431;-63
2022/04/28 09:11:21;;;;;;;19.92;13.68;;;;;;;16.00;48.16;102039.94;4963634;28;20055;-63
2022/04/28 09:14:20;;;;;;;20.38;13.25;;;;;;;16.27;47.43;102044.47;4965835;28;20055;-62
2022/04/28 09:16:59;;;;;;;20.40;13.53;;;;;;;16.44;47.28;102044.59;4957293;28;20062;-62
2022/04/28 09:19:32;;;;;;;21.10;13.40;;;;;;;16.36;47.04;102037.84;4975330;28;20138;-62
2022/04/28 09:22:09;;;;;;;19.17;12.10;;;;;;;16.30;46.70;102035.53;4959110;28;20078;-62
2022/04/28 09:24:43;;;;;;;18.60;12.85;;;;;;;16.40;46.28;102041.63;4957004;28;20055;-62
2022/04/28 09:27:15;;;;;;;17.77;13.40;;;;;;;16.43;46.35;102037.38;4969776;28;20055;-63
2022/04/28 09:29:46;;;;;;;16.35;11.45;;;;;;;16.55;45.83;102035.66;4942639;28;20051;-62
2022/04/28 09:32:17;;;;;;;19.95;11.60;;;;;;;16.77;45.41;102029.19;4968988;28;20063;-62
2022/04/28 09:35:23;;;;;;;15.25;11.20;;;;;;;16.89;45.30;102030.19;4979217;28;20157;-62
2022/04/28 09:37:59;;;;;;;22.63;11.82;;;;;;;17.15;44.97;102038.59;4949070;28;20052;-63
2022/04/28 09:43:34;;;;;;;19.33;11.70;;;;;;;17.26;44.21;102028.78;4974920;28;20051;-63
2022/04/28 09:46:04;;;;;;;17.08;12.13;;;;;;;17.15;43.61;102038.59;4956618;28;20054;-62
2022/04/28 09:48:31;;;;;;;15.13;10.43;;;;;;;17.25;44.31;102037.47;4970396;28;20054;-63
2022/04/28 09:51:06;;;;;;;20.45;10.48;;;;;;;17.13;44.17;102034.50;4954349;28;20054;-63
2022/04/28 09:53:51;;;;;;;14.85;10.63;;;;;;;17.12;43.85;102030.88;4948664;28;20534;-63
2022/04/28 09:56:39;;;;;;;18.58;11.57;;;;;;;17.01;44.14;102029.56;4976990;28;20054;-62
2022/04/28 09:59:20;;;;;;;23.35;11.68;;;;;;;17.20;44.60;102016.16;4967658;28;20051;-62
2022/04/28 10:01:49;;;;;;;15.20;10.55;;;;;;;17.46;44.14;102027.31;4972128;28;20054;-62
2022/04/28 10:04:17;;;;;;;19.67;10.27;;;;;;;17.38;43.39;102022.56;4958706;28;20046;-63
2022/04/28 10:06:59;;;;;;;14.43;8.90;;;;;;;17.53;42.92;102019.31;4974722;28;20073;-63
2022/04/28 10:09:31;;;;;;;12.55;8.68;;;;;;;17.44;42.65;102013.72;4957911;28;20074;-63
2022/04/28 10:12:08;;;;;;;11.40;8.60;;;;;;;17.60;41.96;102014.06;4977751;28;20070;-63
2022/04/28 10:14:54;;;;;;;11.15;8.65;;;;;;;17.73;41.27;102018.66;4941977;28;20061;-63
2022/04/28 10:17:27;;;;;;;12.95;8.60;;;;;;;17.67;41.45;102015.22;4974717;28;20055;-63
2022/04/28 10:19:57;;;;;;;13.07;8.70;;;;;;;17.75;41.09;102016.34;4940589;28;20065;-63
2022/04/28 10:22:47;;;;;;;11.60;7.78;;;;;;;17.75;41.37;102013.53;4970244;28;20066;-62
2022/04/28 10:34:10;;;;;;;27.13;10.52;;;;;;;18.02;40.56;101995.63;4972214;28;20051;-65
2022/04/28 10:36:56;;;;;;;22.30;9.13;;;;;;;18.17;40.76;101989.50;4967753;28;20055;-66
2022/04/28 10:39:40;;;;;;;12.77;7.82;;;;;;;18.04;40.22;102010.06;4955229;28;20065;-67
2022/04/28 10:42:13;;;;;;;18.00;8.05;;;;;;;18.17;39.88;101993.09;4949230;28;20051;-67
2022/04/28 10:44:51;;;;;;;12.85;7.35;;;;;;;18.29;39.64;101998.00;4966250;28;20050;-68
2022/04/28 10:47:36;;;;;;;13.32;6.78;;;;;;;18.51;39.99;101989.41;4973044;28;20051;-66
2022/04/28 10:50:23;;;;;;;11.10;6.95;;;;;;;18.81;39.04;101989.03;4971926;28;20150;-66
2022/04/28 10:53:05;;;;;;;12.38;6.70;;;;;;;19.24;38.27;101983.16;4969146;28;20055;-66
2022/04/28 10:55:33;;;;;;;15.05;6.72;;;;;;;19.01;38.68;101982.69;4974172;28;20051;-68
2022/04/28 10:58:20;;;;;;;9.43;5.90;;;;;;;18.96;38.29;101982.06;4973047;28;20053;-66
2022/04/28 11:00:55;;;;;;;9.93;5.72;;;;;;;18.73;37.81;101989.09;4946643;28;20050;-66
2022/04/28 11:03:54;;;;;;;10.75;5.65;;;;;;;18.58;38.43;101986.91;4974329;28;20069;-66
2022/04/28 11:06:28;;;;;;;10.52;5.30;;;;;;;18.56;37.99;101983.63;4973126;28;20050;-67
2022/04/28 11:08:58;;;;;;;20.50;12.25;;;;;;;18.96;37.83;101982.06;4971618;28;20059;-66
2022/04/28 11:11:29;;;;;;;7.38;4.63;;;;;;;19.01;35.91;101979.88;4974703;28;20059;-66
2022/04/28 11:13:58;;;;;;;10.52;4.80;;;;;;;19.11;35.15;101970.28;4975036;28;20047;-66
2022/04/28 11:16:28;;;;;;;10.63;4.60;;;;;;;18.85;35.15;101972.44;4944748;28;20533;-68
2022/04/28 11:18:55;;;;;;;11.20;3.70;;;;;;;19.16;35.38;101974.84;4958735;28;20043;-67
2022/04/28 11:21:23;;;;;;;6.57;4.13;;;;;;;19.31;34.78;101977.88;4958477;28;20062;-68
2022/04/28 11:23:51;;;;;;;9.50;4.00;;;;;;;19.37;34.28;101976.50;4949098;28;20054;-68
2022/04/28 11:26:32;;;;;;;11.23;3.83;;;;;;;19.34;33.37;101974.38;4959786;28;20062;-64
2022/04/28 11:29:39;;;;;;;10.88;3.83;;;;;;;19.15;32.11;101974.03;4960845;28;20043;-64
2022/04/28 11:32:10;;;;;;;7.15;4.10;;;;;;;19.27;32.70;101976.88;4972347;28;20051;-61
2022/04/28 11:34:38;;;;;;;11.07;3.72;;;;;;;19.31;32.19;101980.66;4973450;28;20066;-60
2022/04/28 11:37:17;;;;;;;8.05;3.80;;;;;;;19.25;32.77;101984.00;4977842;28;20057;-64
2022/04/28 11:39:45;;;;;;;9.37;4.00;;;;;;;19.51;32.61;101981.81;4972535;28;20521;-58
2022/04/28 11:42:16;;;;;;;6.80;3.50;;;;;;;19.62;32.24;101986.63;4937969;28;20051;-60
2022/04/28 11:44:51;;;;;;;10.25;7.53;;;;;;;19.70;32.07;101990.50;4974091;28;20069;-57
2022/04/28 11:47:19;;;;;;;7.93;4.18;;;;;;;19.55;32.90;101985.53;4972114;28;20059;-59
2022/04/28 11:49:49;;;;;;;8.13;3.88;;;;;;;19.46;32.33;101993.19;4969974;28;20382;-57
2022/04/28 11:52:25;;;;;;;14.20;4.40;;;;;;;19.39;32.57;101979.75;4965918;28;20058;-59
2022/04/28 11:55:04;;;;;;;7.63;4.15;;;;;;;19.28;32.40;101977.72;4970548;28;20038;-58
2022/04/28 11:57:33;;;;;;;8.37;3.83;;;;;;;19.29;32.83;101982.94;4956135;28;20502;-59
2022/04/28 12:00:00;;;;;;;8.38;4.20;;;;;;;19.58;32.67;101974.50;4957125;28;20077;-59
2022/04/28 12:02:38;;;;;;;6.05;3.53;;;;;;;19.70;31.94;101977.31;4976039;28;20399;-58
2022/04/28 12:05:22;;;;;;;7.85;4.00;;;;;;;20.00;31.74;101972.41;4973154;28;20076;-60
2022/04/28 12:07:53;;;;;;;7.65;3.70;;;;;;;20.12;31.11;101973.25;4950958;28;20522;-63
2022/04/28 12:16:13;;;;;;;6.28;3.65;;;;;;;19.83;31.32;101986.56;4959267;28;20059;-64
2022/04/28 12:21:37;;;;;;;12.45;4.15;;;;;;;19.84;31.82;101977.03;4974874;28;20050;-55
2022/04/28 12:24:22;;;;;;;9.15;3.85;;;;;;;20.06;31.61;101976.63;4977436;28;20047;-60